CheckWX is a tool to help pilots better visualize weather data.  It is not intended as a substitute for an official pre-flight weather briefing.

14:32:59 UTC

KFLG METAR
Flagstaff Pulliam Airport
Flagstaff, Arizona, USA
Current

36 mins ago

KFLG 221357Z 00000KT 10SM CLR 01/M06 A3008 RMK AO2 SLP138 T00061056
Observed
Apr-22 @ 13:57 UTC
Visibility
10 SM
Flight Rules
VFR
Cloud Levels
  • Clear skies
Temperature
C / 34°F
Dewpoint
-6°C / 21°F
Humidity
60%
Altimeter
30.08" Hg
Pressure
1018.62 hPa
Previous

2 hours ago

KFLG 221257Z 00000KT 10SM CLR M03/M07 A3007 RMK AO2 SLP137 T10331072
Observed
Apr-22 @ 12:57 UTC
Visibility
10 SM
Flight Rules
VFR
Cloud Levels
  • Clear skies
Temperature
-3°C / 27°F
Dewpoint
-7°C / 19°F
Humidity
74%
Altimeter
30.07" Hg
Pressure
1018.32 hPa
Previous

3 hours ago

KFLG 221157Z AUTO 00000KT 10SM CLR M03/M07 A3006 RMK AO2 SLP131 T10281072 10072 21033 56001
Observed
Apr-22 @ 11:57 UTC
Visibility
10 SM
Flight Rules
VFR
Cloud Levels
  • Clear skies
Temperature
-3°C / 27°F
Dewpoint
-7°C / 19°F
Humidity
74%
Altimeter
30.06" Hg
Pressure
1017.92 hPa